createdAt,value
2019-04-25T00:00:14.199Z,0
2019-04-25T00:00:54.784Z,0
2019-04-25T00:01:36.511Z,0
2019-04-25T00:02:15.897Z,0
2019-04-25T00:02:56.468Z,0
2019-04-25T00:03:37.045Z,0
2019-04-25T00:04:17.613Z,0
2019-04-25T00:04:58.186Z,0
2019-04-25T00:11:03.369Z,0
2019-04-25T00:11:46.487Z,0
2019-04-25T00:12:24.517Z,0
2019-04-25T00:13:05.085Z,0
2019-04-25T00:13:45.666Z,0
2019-04-25T00:14:26.955Z,0
2019-04-25T00:15:07.507Z,0
2019-04-25T00:15:48.155Z,0
2019-04-25T00:16:28.691Z,0
2019-04-25T00:21:53.481Z,0
2019-04-25T00:22:34.072Z,0
2019-04-25T00:23:14.660Z,0
2019-04-25T00:23:55.277Z,0
2019-04-25T00:24:35.940Z,0
2019-04-25T00:25:17.908Z,0
2019-04-25T00:25:57.078Z,0
2019-04-25T00:26:37.666Z,0
2019-04-25T00:27:23.706Z,0
2019-04-25T00:28:02.580Z,0
2019-04-25T00:28:44.371Z,0
2019-04-25T00:29:23.777Z,0
2019-04-25T00:30:04.367Z,0
2019-04-25T00:30:44.919Z,0
2019-04-25T00:31:26.066Z,0
2019-04-25T00:32:06.042Z,0
2019-04-25T00:37:32.144Z,0
2019-04-25T00:38:12.180Z,0
2019-04-25T00:38:52.359Z,0
2019-04-25T00:39:32.390Z,0
2019-04-25T00:40:13.514Z,0
2019-04-25T00:40:53.657Z,0
2019-04-25T00:41:34.252Z,0
2019-04-25T00:42:14.712Z,0
2019-04-25T00:42:55.306Z,0
2019-04-25T00:43:35.851Z,0
2019-04-25T00:49:43.033Z,0
2019-04-25T00:50:22.001Z,0
2019-04-25T00:51:02.266Z,0
2019-04-25T00:51:43.721Z,0
2019-04-25T00:52:23.427Z,0
2019-04-25T00:53:04.024Z,0
2019-04-25T00:53:44.677Z,0
2019-04-25T00:54:25.181Z,0
2019-04-25T00:55:05.771Z,0
2019-04-25T01:01:12.064Z,0
2019-04-25T01:01:52.949Z,0
2019-04-25T01:02:32.179Z,0
2019-04-25T01:03:12.743Z,0
2019-04-25T01:03:54.273Z,0
2019-04-25T01:04:33.882Z,0
2019-04-25T01:05:14.462Z,0
2019-04-25T01:05:55.004Z,0
2019-04-25T01:06:35.570Z,0
2019-04-25T01:12:41.678Z,0
2019-04-25T01:13:22.303Z,0
2019-04-25T01:14:02.225Z,0
2019-04-25T01:14:42.612Z,0
2019-04-25T01:15:23.190Z,0
2019-04-25T01:16:04.048Z,0
2019-04-25T01:16:45.034Z,0
2019-04-25T01:17:24.844Z,0
2019-04-25T01:18:05.449Z,0
2019-04-25T01:18:46.786Z,0
2019-04-25T01:24:51.439Z,0
2019-04-25T01:25:39.120Z,0
2019-04-25T01:26:13.222Z,0
2019-04-25T01:26:53.756Z,0
2019-04-25T01:27:33.450Z,0
2019-04-25T01:28:14.023Z,0
2019-04-25T01:28:54.917Z,0
2019-04-25T01:29:35.201Z,0
2019-04-25T01:30:15.823Z,0
2019-04-25T01:36:20.966Z,0
2019-04-25T01:37:01.585Z,0
2019-04-25T01:37:43.755Z,0
2019-04-25T01:38:23.819Z,0
2019-04-25T01:39:04.286Z,0
2019-04-25T01:39:44.221Z,0
2019-04-25T01:40:24.569Z,0
2019-04-25T01:41:05.169Z,0
2019-04-25T01:41:45.741Z,0
2019-04-25T01:47:52.038Z,0
2019-04-25T01:48:33.251Z,0
2019-04-25T01:49:13.858Z,0
2019-04-25T01:49:54.529Z,0
2019-04-25T01:50:35.193Z,0
2019-04-25T01:51:14.252Z,0
2019-04-25T01:51:57.135Z,0
2019-04-25T01:52:35.192Z,0
2019-04-25T01:53:15.797Z,0
2019-04-25T01:59:21.076Z,0
2019-04-25T02:00:01.877Z,0
2019-04-25T02:00:43.083Z,0
2019-04-25T02:01:24.124Z,0
2019-04-25T02:02:03.711Z,0
2019-04-25T02:02:43.998Z,0
2019-04-25T02:03:27.030Z,0
2019-04-25T02:04:05.138Z,0
2019-04-25T02:04:45.698Z,0
2019-04-25T02:10:50.898Z,0
2019-04-25T02:11:31.443Z,0
2019-04-25T02:12:13.454Z,0
2019-04-25T02:12:54.286Z,0
2019-04-25T02:13:33.578Z,0
2019-04-25T02:14:13.807Z,0
2019-04-25T02:14:55.460Z,0
2019-04-25T02:15:34.903Z,0
2019-04-25T02:16:15.505Z,0
2019-04-25T02:16:57.131Z,0
2019-04-25T02:22:20.847Z,0
2019-04-25T02:23:02.078Z,0
2019-04-25T02:23:42.019Z,0
2019-04-25T02:24:23.684Z,0
2019-04-25T02:25:04.531Z,0
2019-04-25T02:25:44.251Z,0
2019-04-25T02:26:24.310Z,0
2019-04-25T02:27:04.891Z,0
2019-04-25T02:27:45.476Z,0
2019-04-25T02:28:26.082Z,0
2019-04-25T02:33:10.691Z,0
2019-04-25T02:33:51.260Z,0
2019-04-25T02:34:34.247Z,0
2019-04-25T02:35:14.199Z,0
2019-04-25T02:35:54.202Z,0
2019-04-25T02:36:34.632Z,0
2019-04-25T02:37:14.677Z,0
2019-04-25T02:37:57.759Z,0
2019-04-25T02:38:35.431Z,0
2019-04-25T02:39:16.022Z,0
2019-04-25T02:45:21.220Z,0
2019-04-25T02:46:03.756Z,0
2019-04-25T02:46:44.433Z,0
2019-04-25T02:47:24.841Z,0
2019-04-25T02:48:05.604Z,0
2019-04-25T02:48:44.301Z,0
2019-04-25T02:49:32.349Z,0
2019-04-25T02:50:08.365Z,0
2019-04-25T02:50:46.208Z,0
2019-04-25T02:56:51.086Z,0
2019-04-25T02:57:31.682Z,0
2019-04-25T02:58:14.068Z,0
2019-04-25T02:58:54.248Z,0
2019-04-25T02:59:34.564Z,0
2019-04-25T03:00:14.909Z,0
2019-04-25T03:01:00.656Z,0
2019-04-25T03:01:35.141Z,0
2019-04-25T03:02:15.798Z,0
2019-04-25T03:08:21.013Z,0
2019-04-25T03:09:02.005Z,0
2019-04-25T03:09:42.155Z,0
2019-04-25T03:10:26.637Z,0
2019-04-25T03:11:05.554Z,0
2019-04-25T03:11:45.024Z,0
2019-04-25T03:12:30.323Z,0
2019-04-25T03:13:10.104Z,0
2019-04-25T03:13:45.680Z,0
2019-04-25T03:19:51.024Z,0
2019-04-25T03:20:31.589Z,0
2019-04-25T03:21:14.702Z,0
2019-04-25T03:21:54.983Z,0
2019-04-25T03:22:34.364Z,0
2019-04-25T03:23:14.551Z,0
2019-04-25T03:23:55.012Z,0
2019-04-25T03:24:35.273Z,0
2019-04-25T03:25:17.430Z,0
2019-04-25T03:31:22.809Z,4
2019-04-25T03:32:02.621Z,0
2019-04-25T03:32:44.794Z,0
2019-04-25T03:33:25.688Z,4
2019-04-25T03:34:07.758Z,4
2019-04-25T03:34:43.879Z,4
2019-04-25T03:35:24.495Z,4
2019-04-25T03:36:05.556Z,4
2019-04-25T03:36:45.682Z,4
2019-04-25T03:42:50.956Z,12
2019-04-25T03:43:33.122Z,12
2019-04-25T03:44:13.629Z,16
2019-04-25T03:44:53.786Z,16
2019-04-25T03:45:33.351Z,20
2019-04-25T03:46:14.323Z,20
2019-04-25T03:46:54.506Z,24
2019-04-25T03:47:35.071Z,28
2019-04-25T03:48:15.685Z,32
2019-04-25T03:54:20.962Z,80
2019-04-25T03:55:02.187Z,84
2019-04-25T03:55:42.065Z,92
2019-04-25T03:56:22.688Z,100
2019-04-25T03:57:05.145Z,108
2019-04-25T03:57:44.289Z,112
2019-04-25T03:58:24.449Z,120
2019-04-25T03:59:06.072Z,128
2019-04-25T03:59:45.588Z,136
2019-04-25T04:05:50.879Z,224
2019-04-25T04:06:31.481Z,240
2019-04-25T04:07:12.668Z,252
2019-04-25T04:07:53.523Z,268
2019-04-25T04:08:34.261Z,276
2019-04-25T04:09:14.283Z,284
2019-04-25T04:09:55.062Z,288
2019-04-25T04:10:34.971Z,292
2019-04-25T04:11:15.737Z,296
2019-04-25T04:17:20.777Z,412
2019-04-25T04:18:01.347Z,432
2019-04-25T04:18:41.927Z,452
2019-04-25T04:19:23.937Z,472
2019-04-25T04:20:03.915Z,500
2019-04-25T04:20:43.695Z,528
2019-04-25T04:21:24.317Z,556
2019-04-25T04:22:05.490Z,588
2019-04-25T04:22:45.531Z,620
2019-04-25T04:23:26.097Z,656
2019-04-25T04:28:50.797Z,740
2019-04-25T04:29:31.352Z,736
2019-04-25T04:30:12.125Z,736
2019-04-25T04:30:54.017Z,728
2019-04-25T04:31:33.546Z,728
2019-04-25T04:32:14.748Z,728
2019-04-25T04:32:54.615Z,744
2019-04-25T04:33:35.172Z,748
2019-04-25T04:34:15.754Z,752
2019-04-25T04:40:20.985Z,784
2019-04-25T04:41:01.532Z,800
2019-04-25T04:41:43.624Z,812
2019-04-25T04:42:23.651Z,832
2019-04-25T04:43:04.409Z,856
2019-04-25T04:43:44.178Z,884
2019-04-25T04:44:24.597Z,912
2019-04-25T04:45:05.152Z,932
2019-04-25T04:45:45.835Z,952
2019-04-25T04:51:51.060Z,1244
2019-04-25T04:52:31.611Z,1260
2019-04-25T04:53:13.156Z,1292
2019-04-25T04:53:53.676Z,1296
2019-04-25T04:54:34.400Z,1332
2019-04-25T04:55:15.972Z,1324
2019-04-25T04:55:54.468Z,1344
2019-04-25T04:56:35.070Z,1352
2019-04-25T04:57:26.189Z,1380
2019-04-25T05:03:20.808Z,1944
2019-04-25T05:04:01.404Z,2020
2019-04-25T05:04:43.480Z,2064
2019-04-25T05:07:55.979Z,2096
2019-04-25T05:08:36.561Z,2156
2019-04-25T05:09:17.788Z,2084
2019-04-25T05:09:57.961Z,2044
2019-04-25T05:10:38.540Z,2056
2019-04-25T05:11:19.898Z,2052
2019-04-25T05:11:59.685Z,2076
2019-04-25T05:12:40.292Z,2056
2019-04-25T05:13:20.941Z,2048
2019-04-25T05:18:45.714Z,2184
2019-04-25T05:19:26.270Z,2208
2019-04-25T05:20:06.849Z,2232
2019-04-25T05:20:47.529Z,2260
2019-04-25T05:21:28.082Z,2276
2019-04-25T05:22:08.650Z,2300
2019-04-25T05:22:49.222Z,2284
2019-04-25T05:23:29.808Z,2332
2019-04-25T05:24:10.376Z,2360
2019-04-25T05:24:50.958Z,2192
2019-04-25T05:30:16.938Z,2584
2019-04-25T05:30:56.307Z,2568
2019-04-25T05:31:36.956Z,2580
2019-04-25T05:32:18.150Z,2604
2019-04-25T05:32:58.084Z,2644
2019-04-25T05:33:38.669Z,2688
2019-04-25T05:34:19.565Z,2740
2019-04-25T05:34:59.820Z,2824
2019-04-25T05:35:40.372Z,2940
2019-04-25T05:36:21.814Z,3104
2019-04-25T05:41:45.711Z,3860
2019-04-25T05:42:26.290Z,3836
2019-04-25T05:43:06.872Z,3748
2019-04-25T05:43:47.445Z,3656
2019-04-25T05:44:28.038Z,3628
2019-04-25T05:45:08.680Z,3668
2019-04-25T05:45:49.250Z,3684
2019-04-25T05:46:29.841Z,3820
2019-04-25T05:47:10.399Z,3804
2019-04-25T05:47:50.969Z,3748
2019-04-25T05:53:56.090Z,5156
2019-04-25T05:54:36.689Z,8792
2019-04-25T05:55:18.902Z,9044
2019-04-25T05:55:57.801Z,6200
2019-04-25T05:56:38.366Z,6552
2019-04-25T05:57:18.928Z,6600
2019-04-25T05:57:59.491Z,7160
2019-04-25T05:58:40.037Z,21056
2019-04-25T05:59:20.613Z,44736
2019-04-25T06:05:27.077Z,77248
2019-04-25T06:06:06.459Z,62400
2019-04-25T06:06:47.024Z,45504
2019-04-25T06:07:27.881Z,65440
2019-04-25T06:08:08.251Z,89568
2019-04-25T06:08:48.825Z,94304
2019-04-25T06:09:29.400Z,92896
2019-04-25T06:10:10.090Z,92832
2019-04-25T06:10:50.666Z,94432
2019-04-25T06:16:56.035Z,93088
2019-04-25T06:17:36.629Z,13784
2019-04-25T06:18:17.211Z,25248
2019-04-25T06:18:57.782Z,83904
2019-04-25T06:19:38.363Z,35392
2019-04-25T06:20:19.267Z,100704
2019-04-25T06:20:59.526Z,55008
2019-04-25T06:21:40.155Z,14952
2019-04-25T06:22:20.970Z,102944
2019-04-25T06:27:56.350Z,22080
2019-04-25T06:28:26.349Z,26304
2019-04-25T06:29:06.861Z,40544
2019-04-25T06:29:57.559Z,76096
2019-04-25T06:30:28.005Z,62848
2019-04-25T06:31:10.216Z,101280
2019-04-25T06:31:49.140Z,63744
2019-04-25T06:32:29.707Z,51232
2019-04-25T06:33:10.652Z,76416
2019-04-25T06:39:15.849Z,105504
2019-04-25T06:39:56.531Z,103232
2019-04-25T06:40:37.095Z,101728
2019-04-25T06:41:17.805Z,101504
2019-04-25T06:41:58.359Z,102688
2019-04-25T06:42:38.973Z,102720
2019-04-25T06:43:19.559Z,103168
2019-04-25T06:44:00.130Z,99360
2019-04-25T06:44:40.707Z,96800
2019-04-25T06:50:46.182Z,95872
2019-04-25T06:51:27.172Z,91264
2019-04-25T06:52:07.389Z,14892
2019-04-25T06:52:47.950Z,12320
2019-04-25T06:53:28.516Z,87328
2019-04-25T06:54:09.080Z,103168
2019-04-25T06:54:49.657Z,77440
2019-04-25T06:55:30.291Z,69152
2019-04-25T06:56:10.833Z,76608
2019-04-25T07:02:16.174Z,83712
2019-04-25T07:02:56.754Z,101184
2019-04-25T07:03:37.333Z,64608
2019-04-25T07:04:17.923Z,29184
2019-04-25T07:04:58.476Z,25472
2019-04-25T07:05:40.333Z,21632
2019-04-25T07:06:19.627Z,35360
2019-04-25T07:07:10.349Z,77888
2019-04-25T07:07:40.862Z,19712
2019-04-25T07:13:46.069Z,101952
2019-04-25T07:14:27.103Z,101600
2019-04-25T07:15:07.225Z,102304
2019-04-25T07:15:47.814Z,99168
2019-04-25T07:16:29.336Z,100544
2019-04-25T07:17:08.993Z,101952
2019-04-25T07:17:49.570Z,103936
2019-04-25T07:18:32.627Z,104896
2019-04-25T07:19:10.833Z,105376
2019-04-25T07:25:16.161Z,98720
2019-04-25T07:25:56.786Z,99168
2019-04-25T07:26:39.681Z,99328
2019-04-25T07:27:17.965Z,99840
2019-04-25T07:27:58.593Z,98240
2019-04-25T07:28:39.194Z,90400
2019-04-25T07:29:19.793Z,88544
2019-04-25T07:30:00.376Z,92384
2019-04-25T07:30:49.718Z,95520
2019-04-25T07:36:06.190Z,100416
2019-04-25T07:36:46.789Z,99648
2019-04-25T07:37:27.639Z,100064
2019-04-25T07:38:07.977Z,97888
2019-04-25T07:38:48.615Z,93536
2019-04-25T07:39:29.569Z,93088
2019-04-25T07:40:09.793Z,98080
2019-04-25T07:40:50.429Z,102240
2019-04-25T07:41:31.457Z,101504
2019-04-25T07:46:55.762Z,101696
2019-04-25T07:47:36.455Z,100800
2019-04-25T07:48:16.901Z,99264
2019-04-25T07:48:57.512Z,98784
2019-04-25T07:49:38.124Z,98816
2019-04-25T07:50:18.746Z,97984
2019-04-25T07:50:59.367Z,96864
2019-04-25T07:51:39.957Z,94944
2019-04-25T07:52:20.560Z,92800
2019-04-25T07:59:23.709Z,86016
2019-04-25T08:00:04.775Z,90080
2019-04-25T08:00:44.220Z,92704
2019-04-25T08:01:24.785Z,94144
2019-04-25T08:02:05.384Z,93472
2019-04-25T08:02:45.968Z,85280
2019-04-25T08:03:26.574Z,78976
2019-04-25T08:04:07.190Z,72864
2019-04-25T08:04:47.835Z,45792
2019-04-25T08:10:53.529Z,16992
2019-04-25T08:11:34.194Z,16640
2019-04-25T08:12:14.413Z,16160
2019-04-25T08:12:54.995Z,15744
2019-04-25T08:13:35.586Z,15360
2019-04-25T08:14:16.155Z,14076
2019-04-25T08:14:56.716Z,14432
2019-04-25T08:15:37.289Z,13952
2019-04-25T08:16:17.896Z,13532
2019-04-25T08:22:23.440Z,10368
2019-04-25T08:23:04.199Z,10344
2019-04-25T08:23:44.329Z,10240
2019-04-25T08:24:24.920Z,10064
2019-04-25T08:25:05.499Z,9928
2019-04-25T08:25:46.068Z,9744
2019-04-25T08:26:26.632Z,9516
2019-04-25T08:27:07.238Z,9056
2019-04-25T08:27:47.808Z,8688
2019-04-25T08:33:53.559Z,8572
2019-04-25T08:34:34.762Z,8692
2019-04-25T08:35:16.030Z,8656
2019-04-25T08:36:04.073Z,7592
2019-04-25T08:36:36.984Z,7228
2019-04-25T08:37:18.626Z,7008
2019-04-25T08:37:56.597Z,6812
2019-04-25T08:38:38.125Z,6488
2019-04-25T08:39:17.745Z,6848
2019-04-25T08:45:24.434Z,9772
2019-04-25T08:46:04.182Z,9544
2019-04-25T08:46:48.347Z,9568
2019-04-25T08:47:24.945Z,9136
2019-04-25T08:48:05.520Z,9268
2019-04-25T08:48:46.077Z,8816
2019-04-25T08:49:26.641Z,8436
2019-04-25T08:50:07.260Z,7708
2019-04-25T08:50:47.841Z,7820
2019-04-25T08:56:53.184Z,9700
2019-04-25T08:57:34.156Z,9680
2019-04-25T08:58:14.253Z,9484
2019-04-25T08:59:03.496Z,9260
2019-04-25T08:59:40.568Z,8912
2019-04-25T09:00:15.953Z,8684
2019-04-25T09:01:00.493Z,8140
2019-04-25T09:01:39.344Z,8032
2019-04-25T09:02:17.669Z,7748
2019-04-25T09:08:24.024Z,5380
2019-04-25T09:09:03.762Z,5204
2019-04-25T09:09:45.150Z,5028
2019-04-25T09:10:24.605Z,4892
2019-04-25T09:11:05.209Z,4724
2019-04-25T09:11:46.859Z,4620
2019-04-25T09:12:26.363Z,4536
2019-04-25T09:13:06.932Z,4472
2019-04-25T09:13:47.556Z,4408
2019-04-25T09:14:28.078Z,4336
2019-04-25T09:19:54.172Z,4020
2019-04-25T09:20:37.947Z,4004
2019-04-25T09:21:13.960Z,3984
2019-04-25T09:21:54.552Z,3956
2019-04-25T09:22:37.199Z,3932
2019-04-25T09:23:15.670Z,3900
2019-04-25T09:23:56.248Z,3912
2019-04-25T09:24:37.933Z,3896
2019-04-25T09:25:17.382Z,3880
2019-04-25T09:25:57.993Z,3848
2019-04-25T09:32:03.723Z,3804
2019-04-25T09:32:44.641Z,3808
2019-04-25T09:33:24.863Z,3808
2019-04-25T09:34:05.437Z,3772
2019-04-25T09:34:46.039Z,3812
2019-04-25T09:35:26.663Z,3820
2019-04-25T09:36:07.280Z,3804
2019-04-25T09:36:47.826Z,3808
2019-04-25T09:45:13.314Z,3744
2019-04-25T09:45:53.250Z,3656
2019-04-25T09:46:34.144Z,3680
2019-04-25T09:47:13.673Z,3804
2019-04-25T09:47:54.210Z,3796
2019-04-25T09:48:36.193Z,3924
2019-04-25T09:49:15.381Z,3848
2019-04-25T09:49:55.967Z,3760
2019-04-25T09:50:37.482Z,3680
2019-04-25T09:56:42.876Z,3688
2019-04-25T09:57:23.370Z,3668
2019-04-25T09:58:04.069Z,3644
2019-04-25T09:58:44.312Z,3600
2019-04-25T09:59:27.696Z,3420
2019-04-25T10:00:04.798Z,3568
2019-04-25T10:00:45.971Z,3580
2019-04-25T10:01:25.982Z,3568
2019-04-25T10:02:06.557Z,3580
2019-04-25T10:08:13.403Z,3592
2019-04-25T10:08:54.066Z,3704
2019-04-25T10:09:33.732Z,3732
2019-04-25T10:10:13.587Z,3712
2019-04-25T10:10:55.401Z,3684
2019-04-25T10:11:34.760Z,3728
2019-04-25T10:12:15.342Z,3772
2019-04-25T10:12:55.896Z,3736
2019-04-25T10:13:36.474Z,3548
2019-04-25T10:19:41.674Z,3336
2019-04-25T10:20:23.161Z,3780
2019-04-25T10:21:04.246Z,3884
2019-04-25T10:24:16.771Z,3884
2019-04-25T10:25:00.480Z,3836
2019-04-25T10:25:38.066Z,3812
2019-04-25T10:26:18.520Z,3764
2019-04-25T10:26:59.093Z,3760
2019-04-25T10:27:40.687Z,3672
2019-04-25T10:28:20.256Z,3604
2019-04-25T10:29:00.847Z,3548
2019-04-25T10:29:47.987Z,3480
2019-04-25T10:35:06.452Z,3088
2019-04-25T10:35:52.919Z,3028
2019-04-25T10:36:27.640Z,3004
2019-04-25T10:37:08.199Z,3028
2019-04-25T10:37:48.767Z,3004
2019-04-25T10:38:29.324Z,2956
2019-04-25T10:39:11.084Z,2912
2019-04-25T10:39:51.366Z,2812
2019-04-25T10:40:31.058Z,2940
2019-04-25T10:41:11.643Z,2920
2019-04-25T10:47:17.043Z,2876
2019-04-25T10:47:57.619Z,2860
2019-04-25T10:48:39.877Z,2864
2019-04-25T10:49:18.799Z,2856
2019-04-25T10:49:59.412Z,2864
2019-04-25T10:50:40.147Z,2856
2019-04-25T10:51:20.589Z,2852
2019-04-25T10:52:01.176Z,2852
2019-04-25T10:52:41.733Z,2840
2019-04-25T10:58:47.929Z,2784
2019-04-25T10:59:27.611Z,2732
2019-04-25T11:00:09.543Z,2712
2019-04-25T11:00:48.913Z,2692
2019-04-25T11:01:29.510Z,2676
2019-04-25T11:02:10.137Z,2660
2019-04-25T11:02:50.796Z,2648
2019-04-25T11:03:31.434Z,2636
2019-04-25T11:09:36.745Z,2592
2019-04-25T11:10:17.288Z,2592
2019-04-25T11:10:57.859Z,2588
2019-04-25T11:11:38.444Z,2592
2019-04-25T11:12:19.029Z,2588
2019-04-25T11:12:59.587Z,2592
2019-04-25T11:13:40.931Z,2592
2019-04-25T11:14:20.843Z,2596
2019-04-25T11:15:01.418Z,2564
2019-04-25T11:21:06.811Z,2632
2019-04-25T11:21:47.724Z,2640
2019-04-25T11:22:28.099Z,2644
2019-04-25T11:23:08.670Z,2648
2019-04-25T11:23:50.078Z,2656
2019-04-25T11:24:29.869Z,2668
2019-04-25T11:25:10.462Z,2668
2019-04-25T11:25:51.259Z,2680
2019-04-25T11:31:56.873Z,2756
2019-04-25T11:32:38.103Z,2768
2019-04-25T11:33:18.681Z,2776
2019-04-25T11:33:59.239Z,2784
2019-04-25T11:34:39.815Z,2792
2019-04-25T11:35:20.414Z,2804
2019-04-25T11:36:00.999Z,2816
2019-04-25T11:36:41.630Z,2832
2019-04-25T11:42:47.131Z,2924
2019-04-25T11:43:27.592Z,2936
2019-04-25T11:44:08.199Z,2944
2019-04-25T11:44:49.728Z,2956
2019-04-25T11:45:29.383Z,2964
2019-04-25T11:46:09.939Z,2968
2019-04-25T11:46:50.522Z,2976
2019-04-25T11:47:31.156Z,2980
2019-04-25T11:48:13.300Z,2992
2019-04-25T11:54:16.983Z,3060
2019-04-25T11:54:57.683Z,3084
2019-04-25T11:55:38.268Z,3092
2019-04-25T11:56:18.836Z,3096
2019-04-25T11:56:59.425Z,3104
2019-04-25T11:57:39.979Z,3084
2019-04-25T11:58:20.549Z,3088
2019-04-25T11:59:01.115Z,3092
2019-04-25T11:59:41.974Z,3096
2019-04-25T12:05:48.358Z,3140
2019-04-25T12:06:27.540Z,3148
2019-04-25T12:07:08.554Z,3148
2019-04-25T12:07:48.700Z,3156
2019-04-25T12:08:29.269Z,3160
2019-04-25T12:09:09.829Z,3160
2019-04-25T12:09:50.462Z,3164
2019-04-25T12:10:31.043Z,3164
2019-04-25T12:11:11.656Z,3164
2019-04-25T12:17:16.917Z,3224
2019-04-25T12:17:57.593Z,3236
2019-04-25T12:18:38.091Z,3240
2019-04-25T12:19:18.648Z,3240
2019-04-25T12:19:59.238Z,3248
2019-04-25T12:20:39.858Z,3260
2019-04-25T12:21:20.434Z,3272
2019-04-25T12:22:01.005Z,3272
2019-04-25T12:22:41.660Z,3280
2019-04-25T12:28:47.270Z,3336
2019-04-25T12:29:27.559Z,3340
2019-04-25T12:30:08.161Z,3344
2019-04-25T12:30:49.287Z,3352
2019-04-25T12:31:29.304Z,3352
2019-04-25T12:32:09.916Z,3356
2019-04-25T12:32:50.465Z,3364
2019-04-25T12:33:31.037Z,3364
2019-04-25T12:34:11.620Z,3368
2019-04-25T12:39:36.435Z,3404
2019-04-25T12:40:17.022Z,3412
2019-04-25T12:40:57.658Z,3416
2019-04-25T12:41:38.227Z,3424
2019-04-25T12:42:18.856Z,3432
2019-04-25T12:42:59.437Z,3440
2019-04-25T12:43:40.113Z,3444
2019-04-25T12:44:20.729Z,3452
2019-04-25T12:45:01.346Z,3456
2019-04-25T12:51:07.064Z,3516
2019-04-25T12:51:47.795Z,3520
2019-04-25T12:52:28.278Z,3528
2019-04-25T12:53:08.909Z,3532
2019-04-25T12:53:49.572Z,3536
2019-04-25T12:54:30.153Z,3544
2019-04-25T12:55:10.757Z,3556
2019-04-25T12:55:53.198Z,3560
2019-04-25T13:01:57.436Z,3624
2019-04-25T13:02:37.569Z,3628
2019-04-25T13:03:18.182Z,3620
2019-04-25T13:03:58.897Z,3632
2019-04-25T13:04:39.354Z,3644
2019-04-25T13:05:19.936Z,3652
2019-04-25T13:06:00.593Z,3660
2019-04-25T13:06:41.244Z,3672
2019-04-25T13:07:23.488Z,3680
2019-04-25T13:12:06.423Z,3728
2019-04-25T13:12:46.993Z,3736
2019-04-25T13:13:27.601Z,3744
2019-04-25T13:14:08.235Z,3740
2019-04-25T13:14:48.861Z,3756
2019-04-25T13:15:29.439Z,3764
2019-04-25T13:16:10.045Z,3768
2019-04-25T13:16:50.649Z,3776
2019-04-25T13:17:31.288Z,3780
2019-04-25T13:18:11.898Z,3796
2019-04-25T13:23:36.847Z,3872
2019-04-25T13:24:17.535Z,3884
2019-04-25T13:24:58.874Z,3884
2019-04-25T13:25:38.770Z,3900
2019-04-25T13:26:19.346Z,3912
2019-04-25T13:27:00.599Z,3920
2019-04-25T13:27:40.620Z,3928
2019-04-25T13:28:21.259Z,3940
2019-04-25T13:29:03.688Z,3952
2019-04-25T13:33:46.520Z,4020
2019-04-25T13:34:35.890Z,4028
2019-04-25T13:35:09.849Z,4036
2019-04-25T13:35:48.416Z,4052
2019-04-25T13:36:28.977Z,4064
2019-04-25T13:37:09.613Z,4068
2019-04-25T13:37:50.243Z,4084
2019-04-25T13:38:30.897Z,4088
2019-04-25T13:39:11.456Z,4096
2019-04-25T13:45:16.951Z,4192
2019-04-25T13:45:57.547Z,4204
2019-04-25T13:46:38.127Z,4216
2019-04-25T13:47:18.748Z,4216
2019-04-25T13:47:59.369Z,4220
2019-04-25T13:48:39.990Z,4228
2019-04-25T13:49:20.570Z,4236
2019-04-25T13:50:01.192Z,4232
2019-04-25T13:50:41.768Z,4240
2019-04-25T13:56:06.710Z,4284
2019-04-25T13:56:47.304Z,4288
2019-04-25T13:57:28.083Z,4296
2019-04-25T13:58:08.689Z,4304
2019-04-25T13:58:49.331Z,4304
2019-04-25T13:59:30.411Z,4308
2019-04-25T14:00:10.561Z,4312
2019-04-25T14:00:51.132Z,4316
2019-04-25T14:01:31.828Z,4316
2019-04-25T14:06:56.564Z,4384
2019-04-25T14:07:37.145Z,4392
2019-04-25T14:08:17.752Z,4396
2019-04-25T14:08:58.336Z,4400
2019-04-25T14:09:38.943Z,4404
2019-04-25T14:10:19.561Z,4404
2019-04-25T14:11:00.153Z,4412
2019-04-25T14:11:40.767Z,4416
2019-04-25T14:12:21.417Z,4420
2019-04-25T14:13:03.414Z,4420
2019-04-25T14:18:26.815Z,4480
2019-04-25T14:19:07.453Z,4488
2019-04-25T14:19:48.014Z,4496
2019-04-25T14:20:28.626Z,4508
2019-04-25T14:21:09.209Z,4512
2019-04-25T14:21:49.813Z,4536
2019-04-25T14:22:30.472Z,4536
2019-04-25T14:23:13.302Z,4524
2019-04-25T14:23:51.690Z,4544
2019-04-25T14:29:16.706Z,4608
2019-04-25T14:29:57.306Z,4632
2019-04-25T14:30:37.888Z,4644
2019-04-25T14:31:31.842Z,4652
2019-04-25T14:31:59.097Z,4668
2019-04-25T14:32:39.671Z,4692
2019-04-25T14:33:20.289Z,4712
2019-04-25T14:34:00.874Z,4260
2019-04-25T14:34:43.156Z,4140
2019-04-25T14:40:06.663Z,4712
2019-04-25T14:40:47.288Z,4716
2019-04-25T14:41:28.146Z,4720
2019-04-25T14:42:08.555Z,4712
2019-04-25T14:42:49.146Z,4708
2019-04-25T14:43:29.757Z,4700
2019-04-25T14:44:10.362Z,4700
2019-04-25T14:44:50.971Z,4700
2019-04-25T14:45:42.855Z,4700
2019-04-25T14:50:56.496Z,4668
2019-04-25T14:51:37.058Z,4660
2019-04-25T14:52:17.723Z,4652
2019-04-25T14:52:58.368Z,4644
2019-04-25T14:53:38.966Z,4636
2019-04-25T14:54:19.620Z,4632
2019-04-25T14:55:00.326Z,4632
2019-04-25T14:55:40.942Z,4632
2019-04-25T14:56:22.484Z,4628
2019-04-25T15:01:46.798Z,4560
2019-04-25T15:02:27.806Z,4552
2019-04-25T15:03:08.518Z,4548
2019-04-25T15:03:49.109Z,4540
2019-04-25T15:04:30.086Z,4532
2019-04-25T15:05:10.728Z,4528
2019-04-25T15:05:51.614Z,4520
2019-04-25T15:11:16.572Z,4488
2019-04-25T15:11:57.145Z,4488
2019-04-25T15:12:37.783Z,4480
2019-04-25T15:13:18.366Z,4480
2019-04-25T15:13:58.989Z,4468
2019-04-25T15:14:39.646Z,4468
2019-04-25T15:15:20.253Z,4460
2019-04-25T15:16:00.879Z,4456
2019-04-25T15:16:41.498Z,4456
2019-04-25T15:22:06.459Z,4376
2019-04-25T15:22:47.060Z,4364
2019-04-25T15:23:27.662Z,4352
2019-04-25T15:24:08.257Z,4332
2019-04-25T15:24:49.051Z,4324
2019-04-25T15:25:29.736Z,4312
2019-04-25T15:26:10.243Z,4304
2019-04-25T15:26:50.868Z,4304
2019-04-25T15:27:31.461Z,4300
2019-04-25T15:32:56.459Z,4264
2019-04-25T15:33:37.027Z,4260
2019-04-25T15:34:17.671Z,4244
2019-04-25T15:34:58.305Z,4240
2019-04-25T15:35:38.891Z,4232
2019-04-25T15:36:19.513Z,4224
2019-04-25T15:37:00.105Z,4228
2019-04-25T15:40:14.336Z,4192
2019-04-25T15:40:54.890Z,4188
2019-04-25T15:41:35.481Z,4176
2019-04-25T15:42:16.062Z,4160
2019-04-25T15:42:56.637Z,4148
2019-04-25T15:43:37.218Z,4140
2019-04-25T15:44:17.789Z,4132
2019-04-25T15:44:58.357Z,4120
2019-04-25T15:45:38.976Z,4108
2019-04-25T15:51:44.533Z,3996
2019-04-25T15:52:26.649Z,3988
2019-04-25T15:53:05.825Z,3988
2019-04-25T15:53:46.507Z,4016
2019-04-25T15:54:27.598Z,4464
2019-04-25T15:55:08.027Z,5320
2019-04-25T15:55:48.212Z,6364
2019-04-25T15:56:28.853Z,7312
2019-04-25T15:57:09.419Z,8080
2019-04-25T16:02:34.950Z,3872
2019-04-25T16:03:14.895Z,3824
2019-04-25T16:03:55.484Z,3788
2019-04-25T16:04:36.079Z,3760
2019-04-25T16:05:16.711Z,3732
2019-04-25T16:05:57.379Z,3724
2019-04-25T16:06:38.004Z,3696
2019-04-25T16:07:18.604Z,3680
2019-04-25T16:07:59.175Z,3664
2019-04-25T16:13:24.274Z,2944
2019-04-25T16:14:04.950Z,3156
2019-04-25T16:14:45.576Z,3040
2019-04-25T16:15:27.534Z,3004
2019-04-25T16:16:06.789Z,3160
2019-04-25T16:16:47.400Z,3056
2019-04-25T16:17:28.544Z,3140
2019-04-25T16:18:08.623Z,3156
2019-04-25T16:18:49.262Z,3180
2019-04-25T16:24:14.193Z,2768
2019-04-25T16:24:54.834Z,2872
2019-04-25T16:25:35.525Z,3036
2019-04-25T16:26:16.056Z,2848
2019-04-25T16:26:56.712Z,2908
2019-04-25T16:27:37.302Z,2760
2019-04-25T16:28:18.002Z,2688
2019-04-25T16:28:58.613Z,2852
2019-04-25T16:29:39.215Z,2580
2019-04-25T16:34:24.028Z,2444
2019-04-25T16:35:04.623Z,2324
2019-04-25T16:35:45.209Z,2132
2019-04-25T16:36:25.787Z,2004
2019-04-25T16:37:06.381Z,2024
2019-04-25T16:37:46.939Z,2332
2019-04-25T16:38:27.532Z,2676
2019-04-25T16:39:08.112Z,2800
2019-04-25T16:39:48.699Z,2796
2019-04-25T16:40:29.876Z,3624
2019-04-25T16:45:54.391Z,4812
2019-04-25T16:46:35.159Z,7720
2019-04-25T16:47:15.699Z,8368
2019-04-25T16:47:56.334Z,7432
2019-04-25T16:48:36.946Z,5516